Time;durP1;ratioP1;P1;durP2;ratioP2;P2;SDS_P1;SDS_P2;PMS_P1;PMS_P2;Temp;Humidity;BMP_temperature;BMP_pressure;BME280_temperature;BME280_humidity;BME280_pressure;Samples;Min_cycle;Max_cycle;Signal;HPM_P1;HPM_P2
2023/07/03 00:00:12;;;;;;;13.60;4.10;;;15.20;99.90;;;;;;5080607;28;20048;-56
2023/07/03 00:02:41;;;;;;;17.30;3.58;;;15.20;99.90;;;;;;5078993;28;20603;-56
2023/07/03 00:05:08;;;;;;;12.80;3.97;;;15.20;99.90;;;;;;5080427;28;20091;-57
2023/07/03 00:07:36;;;;;;;11.73;3.80;;;15.20;99.90;;;;;;5079212;28;20394;-55
2023/07/03 00:10:04;;;;;;;13.00;3.90;;;15.20;99.90;;;;;;5080204;28;20086;-56
2023/07/03 00:12:30;;;;;;;15.02;4.70;;;15.20;99.90;;;;;;5080111;28;20041;-56
2023/07/03 00:14:56;;;;;;;12.73;4.00;;;15.30;99.90;;;;;;5079536;28;20032;-56
2023/07/03 00:17:22;;;;;;;14.60;4.65;;;15.30;99.90;;;;;;5080127;28;20895;-56
2023/07/03 00:19:48;;;;;;;11.43;4.10;;;15.30;99.90;;;;;;5078848;28;20033;-56
2023/07/03 00:22:13;;;;;;;12.07;4.07;;;15.30;99.90;;;;;;5080101;28;20443;-55
2023/07/03 00:24:39;;;;;;;13.93;4.03;;;15.30;99.90;;;;;;5078950;28;20044;-56
2023/07/03 00:27:05;;;;;;;11.77;3.78;;;15.30;99.90;;;;;;5079794;28;20060;-57
2023/07/03 00:29:32;;;;;;;15.75;3.63;;;15.30;99.90;;;;;;5079982;28;20068;-56
2023/07/03 00:31:59;;;;;;;14.13;3.88;;;15.30;99.90;;;;;;5078754;28;20139;-56
2023/07/03 00:34:26;;;;;;;15.10;4.32;;;15.30;99.90;;;;;;5080039;28;20048;-56
2023/07/03 00:36:52;;;;;;;14.38;3.75;;;15.30;99.90;;;;;;5078287;28;20040;-57
2023/07/03 00:39:17;;;;;;;13.50;4.00;;;15.30;99.90;;;;;;5078178;28;20127;-57
2023/07/03 00:41:43;;;;;;;17.15;4.18;;;15.30;99.90;;;;;;5070243;28;20084;-57
2023/07/03 00:44:14;;;;;;;16.10;5.78;;;15.20;99.90;;;;;;5072624;28;20052;-57
2023/07/03 00:46:42;;;;;;;14.40;3.85;;;15.20;99.90;;;;;;5059203;28;20128;-55
2023/07/03 00:49:09;;;;;;;15.23;3.70;;;15.20;99.90;;;;;;5057321;28;20049;-56
2023/07/03 00:51:43;;;;;;;13.05;3.58;;;15.20;99.90;;;;;;5058205;28;20037;-57
2023/07/03 00:54:09;;;;;;;13.82;3.70;;;15.20;99.90;;;;;;5066620;28;20109;-56
2023/07/03 00:56:35;;;;;;;13.48;3.85;;;15.20;99.90;;;;;;5079525;28;20471;-57
2023/07/03 00:59:02;;;;;;;12.73;3.60;;;15.20;99.90;;;;;;5078427;28;20604;-56
2023/07/03 01:01:36;;;;;;;12.13;3.40;;;15.20;99.90;;;;;;5078419;28;20512;-56
2023/07/03 01:04:20;;;;;;;14.50;3.53;;;15.20;99.90;;;;;;5077826;28;20056;-56
2023/07/03 01:06:54;;;;;;;14.43;3.65;;;15.20;99.90;;;;;;5077447;28;20048;-57
2023/07/03 01:09:22;;;;;;;12.32;3.50;;;15.20;99.90;;;;;;5079148;28;20127;-56
2023/07/03 01:11:49;;;;;;;12.35;3.65;;;15.20;99.90;;;;;;5078127;28;20048;-55
2023/07/03 01:14:18;;;;;;;11.80;3.92;;;15.20;99.90;;;;;;5078968;28;20036;-56
2023/07/03 01:16:46;;;;;;;10.52;3.30;;;15.10;99.90;;;;;;5078781;28;20048;-56
2023/07/03 01:19:18;;;;;;;14.70;3.83;;;15.20;99.90;;;;;;5078219;28;20047;-57
2023/07/03 01:22:00;;;;;;;11.88;3.53;;;15.20;99.90;;;;;;5078813;28;20036;-56
2023/07/03 01:24:46;;;;;;;13.77;3.60;;;15.10;99.90;;;;;;5077903;28;20041;-56
2023/07/03 01:27:16;;;;;;;13.30;3.38;;;15.20;99.90;;;;;;5078339;28;20066;-57
2023/07/03 01:29:44;;;;;;;14.82;3.92;;;15.20;99.90;;;;;;5078501;28;20489;-56
2023/07/03 01:32:12;;;;;;;12.15;3.55;;;15.20;99.90;;;;;;5077945;28;20496;-55
2023/07/03 01:34:43;;;;;;;14.05;3.78;;;15.20;99.90;;;;;;5078343;28;20040;-56
2023/07/03 01:37:10;;;;;;;12.48;3.35;;;15.20;99.90;;;;;;5076953;28;20116;-57
2023/07/03 01:39:37;;;;;;;13.98;3.30;;;15.20;99.90;;;;;;5078748;28;20037;-56
2023/07/03 01:42:04;;;;;;;11.27;2.95;;;15.20;99.90;;;;;;5078132;28;20049;-56
2023/07/03 01:44:29;;;;;;;13.15;3.88;;;15.20;99.90;;;;;;5078109;28;20083;-57
2023/07/03 01:47:05;;;;;;;14.60;4.07;;;15.10;99.90;;;;;;5078090;28;20048;-56
2023/07/03 01:49:31;;;;;;;11.73;2.90;;;15.10;99.90;;;;;;5077228;28;20068;-56
2023/07/03 01:52:19;;;;;;;12.95;3.00;;;15.10;99.90;;;;;;5078082;28;20044;-57
2023/07/03 01:54:55;;;;;;;10.60;2.35;;;15.10;99.90;;;;;;5077825;28;20059;-56
2023/07/03 01:57:37;;;;;;;12.98;4.00;;;15.00;99.90;;;;;;5077797;28;20071;-56
2023/07/03 02:00:06;;;;;;;9.90;2.60;;;14.90;99.90;;;;;;5078682;28;20048;-56
2023/07/03 02:02:33;;;;;;;10.40;2.35;;;14.90;99.90;;;;;;5077277;28;20506;-57
2023/07/03 02:05:10;;;;;;;10.63;3.00;;;14.80;99.90;;;;;;5078475;28;20056;-57
2023/07/03 02:07:38;;;;;;;10.70;2.40;;;14.80;99.90;;;;;;5077405;28;20056;-56
2023/07/03 02:10:05;;;;;;;15.90;2.88;;;14.70;99.90;;;;;;5077694;28;20098;-57
2023/07/03 02:12:30;;;;;;;12.32;2.58;;;14.70;99.90;;;;;;5078149;28;20051;-57
2023/07/03 02:15:01;;;;;;;13.73;2.72;;;14.70;99.90;;;;;;5077120;28;20044;-56
2023/07/03 02:17:26;;;;;;;13.05;2.40;;;14.50;99.90;;;;;;5078283;28;20087;-56
2023/07/03 02:19:52;;;;;;;8.35;2.13;;;14.60;99.90;;;;;;5076927;28;20080;-57
2023/07/03 02:22:18;;;;;;;12.88;2.63;;;14.50;99.90;;;;;;5078056;28;20060;-57
2023/07/03 02:24:43;;;;;;;9.80;2.20;;;14.40;99.90;;;;;;5077322;28;20079;-55
2023/07/03 02:27:09;;;;;;;10.23;2.30;;;14.40;99.90;;;;;;5077909;28;20040;-57
2023/07/03 02:29:34;;;;;;;12.60;2.90;;;14.40;99.90;;;;;;5077616;28;20045;-56
2023/07/03 02:32:00;;;;;;;10.38;2.40;;;14.30;99.90;;;;;;5077272;28;20116;-56
2023/07/03 02:34:26;;;;;;;10.05;2.78;;;14.30;99.90;;;;;;5077881;28;20098;-57
2023/07/03 02:36:53;;;;;;;13.90;2.72;;;14.20;99.90;;;;;;5076253;28;20067;-56
2023/07/03 02:39:18;;;;;;;8.90;2.30;;;14.20;99.90;;;;;;5078080;28;20056;-57
2023/07/03 02:41:44;;;;;;;17.85;3.65;;;14.20;99.90;;;;;;5076664;28;20043;-55
2023/07/03 02:44:10;;;;;;;11.10;2.60;;;14.10;99.90;;;;;;5077617;28;20472;-57
2023/07/03 02:46:35;;;;;;;12.63;3.40;;;14.20;99.90;;;;;;5077621;28;20044;-55
2023/07/03 02:49:03;;;;;;;9.90;2.65;;;14.20;99.90;;;;;;5076916;28;20072;-56
2023/07/03 02:51:29;;;;;;;9.52;2.03;;;14.10;99.90;;;;;;5077948;28;20114;-56
2023/07/03 02:53:55;;;;;;;11.88;2.58;;;14.00;99.90;;;;;;5076317;28;20044;-57
2023/07/03 02:56:20;;;;;;;9.02;2.50;;;14.10;99.90;;;;;;5077926;28;20048;-56
2023/07/03 02:58:46;;;;;;;8.85;2.10;;;14.00;99.90;;;;;;5076364;28;20072;-56
2023/07/03 03:01:12;;;;;;;9.95;2.17;;;14.10;99.90;;;;;;5077678;28;20036;-56
2023/07/03 03:03:37;;;;;;;12.23;2.78;;;14.00;99.90;;;;;;5079779;28;20182;-56
2023/07/03 03:06:03;;;;;;;11.02;2.30;;;13.90;99.90;;;;;;5080738;28;20049;-56
2023/07/03 03:08:28;;;;;;;12.20;2.50;;;13.90;99.90;;;;;;5080867;28;20063;-55
2023/07/03 03:10:54;;;;;;;9.55;2.00;;;13.90;99.90;;;;;;5080143;28;20040;-57
2023/07/03 03:13:20;;;;;;;14.73;2.72;;;13.90;99.90;;;;;;5081607;28;20051;-55
2023/07/03 03:15:46;;;;;;;11.07;2.15;;;13.90;99.90;;;;;;5079963;28;20041;-56
2023/07/03 03:18:12;;;;;;;8.88;2.03;;;13.90;99.90;;;;;;5081099;28;20051;-56
2023/07/03 03:20:38;;;;;;;9.05;2.20;;;13.90;99.90;;;;;;5080828;28;20039;-56
2023/07/03 03:23:03;;;;;;;10.93;2.35;;;13.80;99.90;;;;;;5080670;28;20408;-56
2023/07/03 03:25:29;;;;;;;8.77;2.10;;;13.90;99.90;;;;;;5080908;28;20063;-57
2023/07/03 03:27:56;;;;;;;10.88;2.30;;;13.90;99.90;;;;;;5080188;28;20052;-56
2023/07/03 03:30:22;;;;;;;12.98;2.20;;;13.90;99.90;;;;;;5081339;28;20055;-56
2023/07/03 03:32:47;;;;;;;7.10;1.73;;;13.90;99.90;;;;;;5079579;28;20037;-55
2023/07/03 03:35:13;;;;;;;8.35;2.10;;;13.80;99.90;;;;;;5080880;28;20095;-56
2023/07/03 03:37:39;;;;;;;9.88;2.55;;;13.80;99.90;;;;;;5079822;28;20037;-56
2023/07/03 03:40:07;;;;;;;8.52;1.90;;;13.80;99.90;;;;;;5080504;28;20063;-56
2023/07/03 03:42:33;;;;;;;10.15;2.30;;;13.80;99.90;;;;;;5080910;28;20102;-56
2023/07/03 03:44:59;;;;;;;12.95;2.72;;;13.80;99.90;;;;;;5080008;28;20493;-57
2023/07/03 03:47:25;;;;;;;9.38;2.15;;;13.80;99.90;;;;;;5081069;28;20048;-57
2023/07/03 03:49:51;;;;;;;10.60;2.08;;;13.80;99.90;;;;;;5079341;28;20048;-56
2023/07/03 03:52:16;;;;;;;13.65;2.22;;;13.80;99.90;;;;;;5080806;28;20048;-56
2023/07/03 03:54:42;;;;;;;15.20;2.47;;;13.80;99.90;;;;;;5079872;28;20551;-55
2023/07/03 03:57:08;;;;;;;7.13;2.60;;;13.80;99.90;;;;;;5080251;28;20168;-56
2023/07/03 03:59:34;;;;;;;9.80;2.28;;;13.80;99.90;;;;;;5080404;28;20041;-56
2023/07/03 04:01:59;;;;;;;10.63;1.92;;;13.80;99.90;;;;;;5079678;28;20054;-56
2023/07/03 04:04:25;;;;;;;12.27;2.08;;;13.80;99.90;;;;;;5080065;28;20047;-56
2023/07/03 04:06:52;;;;;;;10.48;2.33;;;13.90;99.90;;;;;;5078632;28;20044;-56
2023/07/03 04:09:18;;;;;;;8.95;2.33;;;13.90;99.90;;;;;;5080394;28;20041;-56
2023/07/03 04:11:43;;;;;;;10.43;2.10;;;13.90;99.90;;;;;;5079267;28;20051;-56
2023/07/03 04:14:09;;;;;;;12.68;2.00;;;13.90;99.90;;;;;;5079168;28;20044;-56
2023/07/03 04:16:35;;;;;;;9.77;2.20;;;14.00;99.90;;;;;;5078800;28;20052;-56
2023/07/03 04:19:01;;;;;;;10.43;2.05;;;13.90;99.90;;;;;;5079223;28;20048;-56
2023/07/03 04:21:27;;;;;;;11.65;2.15;;;13.90;99.90;;;;;;5080450;28;20037;-57
2023/07/03 04:23:53;;;;;;;8.80;2.10;;;14.00;99.90;;;;;;5078742;28;20104;-57
2023/07/03 04:26:18;;;;;;;11.05;2.30;;;14.00;99.90;;;;;;5080068;28;20049;-56
2023/07/03 04:28:44;;;;;;;10.60;1.98;;;14.00;99.90;;;;;;5078727;28;20049;-56
2023/07/03 04:31:10;;;;;;;10.93;2.20;;;14.00;99.90;;;;;;5079580;28;20052;-57
2023/07/03 04:33:35;;;;;;;12.98;2.25;;;14.00;99.90;;;;;;5079378;28;20085;-56
2023/07/03 04:36:01;;;;;;;10.32;2.20;;;14.10;99.90;;;;;;5078939;28;20308;-56
2023/07/03 04:38:27;;;;;;;11.52;2.40;;;14.10;99.90;;;;;;5079693;28;20044;-55
2023/07/03 04:40:53;;;;;;;13.10;2.35;;;14.10;99.90;;;;;;5064220;28;20519;-56
2023/07/03 04:43:22;;;;;;;10.15;2.25;;;14.10;99.90;;;;;;5066796;28;20051;-56
2023/07/03 04:45:53;;;;;;;10.80;2.28;;;14.10;99.90;;;;;;5061897;28;20418;-56
2023/07/03 04:48:19;;;;;;;12.10;2.72;;;14.30;99.90;;;;;;5059143;28;20052;-57
2023/07/03 04:50:48;;;;;;;11.23;2.00;;;14.40;99.90;;;;;;5059137;28;20045;-56
2023/07/03 04:53:14;;;;;;;10.98;2.30;;;14.50;99.90;;;;;;5059170;28;20144;-56
2023/07/03 04:55:41;;;;;;;9.52;2.13;;;14.60;99.90;;;;;;5078995;28;20079;-56
2023/07/03 04:58:07;;;;;;;11.63;2.10;;;14.60;99.90;;;;;;5078089;28;20045;-56
2023/07/03 05:00:33;;;;;;;14.93;2.30;;;14.70;99.90;;;;;;5079372;28;20049;-57
2023/07/03 05:03:02;;;;;;;10.80;2.20;;;14.80;99.90;;;;;;5078069;28;20052;-56
2023/07/03 05:05:28;;;;;;;14.63;2.40;;;14.80;99.90;;;;;;5078887;28;20041;-56
2023/07/03 05:07:54;;;;;;;8.32;2.30;;;14.80;99.90;;;;;;5078624;28;20067;-56
2023/07/03 05:10:22;;;;;;;10.25;2.00;;;15.00;99.90;;;;;;5078278;28;20326;-57
2023/07/03 05:12:48;;;;;;;8.95;3.00;;;15.20;99.90;;;;;;5079365;28;20036;-56
2023/07/03 05:15:15;;;;;;;11.32;2.30;;;15.20;99.90;;;;;;5077366;28;20055;-56
2023/07/03 05:17:41;;;;;;;11.65;2.38;;;15.30;99.90;;;;;;5079193;28;20072;-57
2023/07/03 05:20:10;;;;;;;13.45;2.22;;;15.20;99.90;;;;;;5077804;28;20048;-56
2023/07/03 05:22:40;;;;;;;9.20;2.17;;;15.30;99.90;;;;;;5078589;28;20049;-56
2023/07/03 05:25:08;;;;;;;8.07;1.85;;;15.40;99.90;;;;;;5078350;28;20079;-57
2023/07/03 05:27:35;;;;;;;10.30;2.13;;;15.50;99.90;;;;;;5076497;28;20041;-56
2023/07/03 05:30:02;;;;;;;8.85;1.90;;;15.50;99.90;;;;;;5078316;28;20052;-59
2023/07/03 05:32:28;;;;;;;10.00;2.00;;;15.50;99.90;;;;;;5077477;28;20052;-59
2023/07/03 05:34:54;;;;;;;8.88;2.22;;;15.30;99.90;;;;;;5078912;28;20044;-57
2023/07/03 05:37:19;;;;;;;7.90;1.65;;;15.30;99.90;;;;;;5077444;28;20114;-58
2023/07/03 05:39:47;;;;;;;8.95;2.08;;;15.30;99.90;;;;;;5076901;28;20044;-58
2023/07/03 05:42:17;;;;;;;10.55;2.47;;;15.20;99.90;;;;;;5074338;28;20074;-58
2023/07/03 05:44:43;;;;;;;12.23;2.50;;;15.20;99.90;;;;;;5073866;28;20047;-58
2023/07/03 05:47:10;;;;;;;10.90;2.05;;;15.10;99.90;;;;;;5074806;28;20087;-58
2023/07/03 05:49:35;;;;;;;11.82;2.47;;;15.00;99.90;;;;;;5073272;28;20158;-58
2023/07/03 05:52:01;;;;;;;11.93;2.47;;;15.00;99.90;;;;;;5074461;28;20079;-58
2023/07/03 05:54:27;;;;;;;8.70;2.53;;;15.10;99.90;;;;;;5073423;28;20043;-58
2023/07/03 05:57:00;;;;;;;13.07;3.10;;;15.30;99.90;;;;;;5074114;28;20090;-58
2023/07/03 05:59:26;;;;;;;11.68;2.30;;;15.30;99.90;;;;;;5074386;28;20119;-57
2023/07/03 06:01:56;;;;;;;9.73;2.25;;;15.50;99.90;;;;;;5073875;28;20562;-58
2023/07/03 06:04:22;;;;;;;10.93;1.90;;;15.70;99.90;;;;;;5074280;28;20056;-58
2023/07/03 06:06:55;;;;;;;9.35;2.03;;;15.90;99.90;;;;;;5072569;28;20438;-57
2023/07/03 06:09:25;;;;;;;8.75;1.70;;;16.00;99.90;;;;;;5074319;28;20101;-57
2023/07/03 06:11:51;;;;;;;10.25;2.45;;;15.80;99.90;;;;;;5072823;28;20058;-58
2023/07/03 06:14:17;;;;;;;12.73;2.40;;;15.70;99.90;;;;;;5072036;28;20399;-58
2023/07/03 06:16:49;;;;;;;12.60;1.77;;;16.00;99.90;;;;;;5073204;28;20051;-58
2023/07/03 06:19:16;;;;;;;10.77;2.78;;;16.20;99.90;;;;;;5073287;28;20036;-58
2023/07/03 06:21:42;;;;;;;11.63;2.67;;;16.20;99.90;;;;;;5074237;28;20116;-57
2023/07/03 06:24:10;;;;;;;10.43;1.92;;;16.30;99.90;;;;;;5073175;28;20055;-57
2023/07/03 06:26:38;;;;;;;9.40;1.75;;;16.30;99.90;;;;;;5074039;28;20411;-58
2023/07/03 06:29:08;;;;;;;7.15;1.63;;;16.20;99.90;;;;;;5073753;28;20103;-57
2023/07/03 06:31:35;;;;;;;9.20;1.80;;;16.10;99.90;;;;;;5073418;28;20041;-57
2023/07/03 06:34:02;;;;;;;8.77;1.80;;;16.00;99.90;;;;;;5063222;28;20089;-57
2023/07/03 06:36:28;;;;;;;9.98;1.77;;;15.70;99.90;;;;;;5067433;28;20055;-58
2023/07/03 06:38:59;;;;;;;8.40;1.55;;;15.50;99.90;;;;;;5057556;28;20072;-58
2023/07/03 06:41:28;;;;;;;7.22;1.42;;;14.90;99.90;;;;;;5056600;28;20461;-58
2023/07/03 06:43:55;;;;;;;6.97;1.75;;;14.50;99.90;;;;;;5059273;28;20075;-58
2023/07/03 06:46:21;;;;;;;12.07;2.83;;;14.50;99.90;;;;;;5068398;28;20089;-58
2023/07/03 06:48:47;;;;;;;12.90;2.25;;;14.50;99.90;;;;;;5066298;28;20036;-58
2023/07/03 06:51:13;;;;;;;10.32;2.08;;;14.40;99.90;;;;;;5058055;28;20041;-58
2023/07/03 06:53:40;;;;;;;9.75;2.25;;;14.60;99.90;;;;;;5060360;28;20037;-58
2023/07/03 06:56:07;;;;;;;8.65;2.22;;;14.60;99.90;;;;;;5077986;28;20036;-58
2023/07/03 06:58:33;;;;;;;11.18;2.05;;;14.80;99.90;;;;;;5076558;28;20047;-58
2023/07/03 07:01:06;;;;;;;10.13;2.65;;;15.00;99.90;;;;;;5077675;28;20388;-58
2023/07/03 07:03:32;;;;;;;9.85;2.38;;;15.00;99.90;;;;;;5077253;28;20342;-57
2023/07/03 07:05:57;;;;;;;8.88;1.92;;;15.20;99.90;;;;;;5076637;28;20402;-58
2023/07/03 07:08:23;;;;;;;10.63;2.10;;;15.30;99.90;;;;;;5077274;28;20100;-58
2023/07/03 07:10:49;;;;;;;10.18;2.45;;;15.50;99.90;;;;;;5076283;28;20048;-58
2023/07/03 07:13:14;;;;;;;11.98;2.03;;;15.60;99.90;;;;;;5077712;28;20040;-58
2023/07/03 07:15:41;;;;;;;8.20;1.83;;;15.60;99.90;;;;;;5076306;28;20056;-58
2023/07/03 07:18:08;;;;;;;7.90;2.00;;;15.70;99.90;;;;;;5077332;28;20106;-58
2023/07/03 07:20:41;;;;;;;7.90;1.65;;;15.40;99.90;;;;;;5076790;28;20139;-58
2023/07/03 07:23:07;;;;;;;11.90;1.92;;;15.50;99.90;;;;;;5075212;28;20032;-58
2023/07/03 07:25:34;;;;;;;8.48;1.50;;;15.40;99.90;;;;;;5077314;28;20104;-57
2023/07/03 07:28:00;;;;;;;8.35;1.75;;;15.50;99.90;;;;;;5075623;28;20052;-58
2023/07/03 07:30:26;;;;;;;8.30;1.98;;;15.80;99.90;;;;;;5077329;28;20496;-58
2023/07/03 07:32:52;;;;;;;11.73;2.00;;;15.90;99.90;;;;;;5070327;28;20044;-58
2023/07/03 07:35:17;;;;;;;11.75;2.08;;;15.80;99.90;;;;;;5063877;28;20067;-58
2023/07/03 07:37:43;;;;;;;10.27;1.75;;;15.70;99.90;;;;;;5065958;28;20101;-58
2023/07/03 07:40:10;;;;;;;10.27;1.77;;;15.70;99.90;;;;;;5063760;28;20048;-58
2023/07/03 07:42:37;;;;;;;12.75;2.72;;;15.70;99.90;;;;;;5063299;28;20123;-58
2023/07/03 07:45:04;;;;;;;9.93;1.70;;;15.80;99.90;;;;;;5068795;28;20044;-58
2023/07/03 07:47:30;;;;;;;9.20;1.95;;;15.80;99.90;;;;;;5062751;28;20123;-58
2023/07/03 07:49:58;;;;;;;8.38;1.63;;;15.80;99.90;;;;;;5058575;28;20045;-58
2023/07/03 07:52:24;;;;;;;10.20;1.50;;;15.90;99.90;;;;;;5066880;28;20055;-58
2023/07/03 07:54:57;;;;;;;9.05;2.83;;;16.10;99.90;;;;;;5071165;28;20052;-58
2023/07/03 07:57:24;;;;;;;9.85;1.63;;;16.10;99.90;;;;;;5069107;28;20063;-57
2023/07/03 07:59:50;;;;;;;13.07;1.70;;;16.30;99.90;;;;;;5067485;28;20041;-58
2023/07/03 08:02:15;;;;;;;11.20;1.70;;;16.20;99.90;;;;;;5055324;28;20091;-58
2023/07/03 08:04:42;;;;;;;9.82;1.67;;;16.30;99.90;;;;;;5056412;28;20279;-58
2023/07/03 08:07:11;;;;;;;7.38;1.67;;;16.60;99.90;;;;;;5054854;28;20099;-57
2023/07/03 08:09:38;;;;;;;6.93;1.35;;;16.50;99.90;;;;;;5056288;28;20080;-57
2023/07/03 08:12:05;;;;;;;8.02;1.58;;;16.40;99.90;;;;;;5056342;28;20410;-58
2023/07/03 08:14:31;;;;;;;4.65;1.17;;;16.20;99.90;;;;;;5055758;28;20809;-58
2023/07/03 08:16:57;;;;;;;4.45;1.17;;;16.20;99.90;;;;;;5056143;28;20661;-58
2023/07/03 08:19:23;;;;;;;7.25;1.58;;;16.50;99.90;;;;;;5055204;28;20413;-57
2023/07/03 08:21:49;;;;;;;7.13;1.23;;;16.80;99.90;;;;;;5067950;28;20045;-57
2023/07/03 08:24:15;;;;;;;8.80;1.65;;;16.90;99.90;;;;;;5055302;28;20080;-58
2023/07/03 08:26:41;;;;;;;8.80;1.77;;;16.90;99.90;;;;;;5066463;28;20051;-58
2023/07/03 08:29:08;;;;;;;7.03;1.50;;;17.00;99.90;;;;;;5073986;28;20041;-58
2023/07/03 08:31:34;;;;;;;7.47;1.40;;;16.80;99.90;;;;;;5075516;28;20056;-58
2023/07/03 08:33:59;;;;;;;9.93;1.95;;;16.80;99.90;;;;;;5076022;28;20102;-58
2023/07/03 08:36:25;;;;;;;8.25;1.30;;;16.90;99.90;;;;;;5061722;28;20048;-58
2023/07/03 08:38:51;;;;;;;8.95;1.30;;;17.30;99.90;;;;;;5070104;28;20036;-58
2023/07/03 08:41:17;;;;;;;5.85;1.45;;;17.30;99.90;;;;;;5056386;28;20442;-58
2023/07/03 08:43:46;;;;;;;7.10;1.33;;;17.50;99.90;;;;;;5055533;28;20102;-58
2023/07/03 08:46:18;;;;;;;8.23;1.55;;;17.70;99.90;;;;;;5055216;28;20041;-58
2023/07/03 08:48:45;;;;;;;8.50;1.40;;;17.60;99.90;;;;;;5055031;28;20057;-58
2023/07/03 08:51:15;;;;;;;6.75;1.40;;;17.40;99.90;;;;;;5055813;28;20060;-57
2023/07/03 08:53:43;;;;;;;5.88;1.23;;;17.20;99.90;;;;;;5058101;28;20040;-58
2023/07/03 08:56:20;;;;;;;5.65;1.35;;;17.10;99.90;;;;;;5063294;28;20146;-58
2023/07/03 08:58:49;;;;;;;6.03;1.35;;;17.10;99.90;;;;;;5063167;28;20139;-58
2023/07/03 09:01:20;;;;;;;6.60;1.42;;;16.70;99.90;;;;;;5055253;28;20032;-57
2023/07/03 09:04:04;;;;;;;6.75;1.60;;;16.70;99.90;;;;;;5063330;28;20048;-57
2023/07/03 09:06:54;;;;;;;7.75;1.42;;;16.50;99.90;;;;;;5070357;28;20062;-58
2023/07/03 09:09:42;;;;;;;6.18;1.40;;;16.50;99.90;;;;;;5054007;28;20589;-58
2023/07/03 09:12:28;;;;;;;9.73;2.10;;;16.90;99.90;;;;;;5071516;28;20060;-57
2023/07/03 09:15:25;;;;;;;6.72;1.50;;;16.70;99.90;;;;;;5073471;28;20039;-58
2023/07/03 09:17:53;;;;;;;8.65;1.90;;;16.60;99.90;;;;;;5034312;28;20076;-58
2023/07/03 09:20:22;;;;;;;8.48;1.73;;;16.70;99.90;;;;;;5054488;28;20574;-57
2023/07/03 09:22:53;;;;;;;10.60;1.70;;;16.90;99.90;;;;;;5053089;28;20051;-57
2023/07/03 09:25:28;;;;;;;9.30;1.45;;;17.30;99.90;;;;;;5054915;28;20045;-58
2023/07/03 09:27:55;;;;;;;7.78;2.03;;;17.50;99.90;;;;;;5053233;28;20072;-58
2023/07/03 09:30:21;;;;;;;12.10;2.30;;;17.30;99.90;;;;;;5055330;28;20040;-58
2023/07/03 09:32:46;;;;;;;8.55;1.50;;;17.60;99.90;;;;;;5056391;28;20045;-58
2023/07/03 09:35:15;;;;;;;5.75;1.33;;;17.50;99.90;;;;;;5063463;28;20105;-58
2023/07/03 09:37:46;;;;;;;9.23;2.13;;;17.30;99.90;;;;;;5065249;28;20063;-57
2023/07/03 09:40:18;;;;;;;9.45;2.42;;;17.20;99.90;;;;;;5053755;28;20094;-58
2023/07/03 09:42:43;;;;;;;8.02;1.90;;;17.00;99.90;;;;;;5054859;28;20037;-58
2023/07/03 09:45:21;;;;;;;9.75;1.67;;;17.00;99.90;;;;;;5053647;28;20043;-58
2023/07/03 09:47:57;;;;;;;8.57;1.95;;;16.70;99.90;;;;;;5054726;28;20060;-62
2023/07/03 09:50:33;;;;;;;9.65;1.92;;;16.80;99.90;;;;;;5054120;28;20045;-56
2023/07/03 09:53:01;;;;;;;10.32;2.17;;;16.80;99.90;;;;;;5053563;28;20049;-58
2023/07/03 09:55:27;;;;;;;11.18;2.53;;;17.00;99.90;;;;;;5075145;28;20037;-59
2023/07/03 09:57:53;;;;;;;8.52;1.67;;;17.00;99.90;;;;;;5076315;28;20036;-58
2023/07/03 10:00:22;;;;;;;5.97;1.40;;;17.00;99.90;;;;;;5067378;28;20040;-60
2023/07/03 10:02:57;;;;;;;8.18;1.85;;;17.30;99.90;;;;;;5066330;28;20044;-60
2023/07/03 10:05:32;;;;;;;8.35;1.60;;;17.30;99.90;;;;;;5061667;28;20154;-58
2023/07/03 10:08:04;;;;;;;10.05;1.40;;;17.20;99.90;;;;;;5057716;28;20087;-58
2023/07/03 10:10:35;;;;;;;4.80;1.30;;;17.30;99.90;;;;;;5057273;28;20056;-58
2023/07/03 10:13:12;;;;;;;7.28;1.30;;;17.20;99.90;;;;;;5057911;28;20049;-58
2023/07/03 10:15:41;;;;;;;7.50;1.52;;;17.00;99.90;;;;;;5056177;28;20071;-58
2023/07/03 10:18:25;;;;;;;4.43;1.15;;;17.10;99.90;;;;;;5058019;28;20048;-58
2023/07/03 10:20:51;;;;;;;7.75;1.40;;;17.00;99.90;;;;;;5057839;28;20051;-58
2023/07/03 10:23:25;;;;;;;6.82;1.40;;;17.00;99.90;;;;;;5058842;28;20463;-57
2023/07/03 10:25:58;;;;;;;6.53;1.63;;;17.20;99.90;;;;;;5066118;28;20040;-58
2023/07/03 10:28:31;;;;;;;6.93;1.50;;;17.50;99.90;;;;;;5063567;28;20071;-58
2023/07/03 10:31:01;;;;;;;7.55;2.00;;;17.40;99.90;;;;;;5065418;28;20048;-58
2023/07/03 10:33:33;;;;;;;6.13;1.40;;;17.40;99.90;;;;;;5070059;28;20089;-58
2023/07/03 10:36:03;;;;;;;9.15;1.80;;;17.20;99.90;;;;;;5059898;28;20049;-58
2023/07/03 10:38:40;;;;;;;6.72;1.48;;;17.00;99.90;;;;;;5057666;28;20041;-58
2023/07/03 10:41:12;;;;;;;5.45;1.20;;;16.80;99.90;;;;;;5063133;28;20053;-58
2023/07/03 10:43:55;;;;;;;4.93;1.30;;;16.80;99.90;;;;;;5061314;28;20051;-58
2023/07/03 10:46:50;;;;;;;7.22;1.60;;;16.70;99.90;;;;;;5057670;28;20041;-58
2023/07/03 10:49:45;;;;;;;8.48;1.30;;;16.70;99.90;;;;;;5056269;28;20053;-59
2023/07/03 10:52:47;;;;;;;7.65;1.55;;;16.90;99.90;;;;;;5060161;28;20056;-60
2023/07/03 10:55:22;;;;;;;;;;;17.30;99.90;;;;;;5075534;28;20062;-59
2023/07/03 10:58:22;;;;;;;10.07;2.03;;;17.60;99.90;;;;;;5076638;28;19924;-59
2023/07/03 11:01:06;;;;;;;13.55;2.88;;;18.00;99.90;;;;;;5077626;28;20052;-60
2023/07/03 11:03:41;;;;;;;7.85;1.55;;;18.10;99.90;;;;;;5077142;28;20051;-59
2023/07/03 11:06:36;;;;;;;6.85;1.48;;;18.40;99.90;;;;;;5076747;28;20055;-58
2023/07/03 11:09:33;;;;;;;6.57;1.33;;;18.30;99.90;;;;;;5077642;28;20052;-59
2023/07/03 11:12:27;;;;;;;5.93;1.60;;;18.50;99.90;;;;;;5071961;28;20052;-59
2023/07/03 11:15:30;;;;;;;4.05;1.20;;;18.80;99.90;;;;;;5076523;28;20044;-59
2023/07/03 11:18:21;;;;;;;5.63;1.60;;;18.80;99.90;;;;;;5077258;28;20040;-59
2023/07/03 11:21:12;;;;;;;8.73;1.63;;;18.30;99.90;;;;;;5077325;28;20045;-59
2023/07/03 11:23:37;;;;;;;10.07;1.40;;;18.00;99.90;;;;;;5076866;28;20052;-59
2023/07/03 11:26:29;;;;;;;7.68;1.58;;;18.10;99.90;;;;;;5081235;28;20086;-59
2023/07/03 11:28:56;;;;;;;6.18;1.15;;;17.60;99.90;;;;;;5079559;28;20516;-59
2023/07/03 11:31:24;;;;;;;5.38;1.02;;;17.90;99.90;;;;;;5080382;28;20036;-59
2023/07/03 11:33:51;;;;;;;8.77;1.45;;;17.60;99.90;;;;;;5080816;28;20059;-59
2023/07/03 11:36:41;;;;;;;6.55;1.35;;;17.60;99.90;;;;;;5079661;28;20037;-58
2023/07/03 11:39:13;;;;;;;7.10;1.50;;;17.70;99.90;;;;;;5080563;28;20062;-59
2023/07/03 11:41:43;;;;;;;;;;;17.60;99.90;;;;;;5080739;28;20490;-58
2023/07/03 11:44:17;;;;;;;6.72;1.45;;;17.60;99.90;;;;;;5080080;28;19920;-59
2023/07/03 11:46:43;;;;;;;8.75;1.50;;;17.60;99.90;;;;;;5071798;28;20122;-59
2023/07/03 11:49:12;;;;;;;7.10;1.30;;;17.60;99.90;;;;;;5069492;28;20090;-59
2023/07/03 11:51:38;;;;;;;9.00;1.50;;;17.60;99.90;;;;;;5074789;28;20037;-59
2023/07/03 11:54:23;;;;;;;7.47;1.30;;;17.60;99.90;;;;;;5066644;28;20033;-59
2023/07/03 11:56:52;;;;;;;5.43;1.38;;;17.80;99.90;;;;;;5072254;28;20052;-59
2023/07/03 11:59:23;;;;;;;4.20;1.08;;;17.50;99.90;;;;;;5070487;28;20041;-59
2023/07/03 12:02:13;;;;;;;6.00;1.20;;;17.60;99.90;;;;;;5070350;28;20528;-59
2023/07/03 12:04:42;;;;;;;5.80;1.30;;;17.70;99.90;;;;;;5080165;28;20050;-59
2023/07/03 12:07:08;;;;;;;5.78;1.27;;;17.40;99.90;;;;;;5078745;28;20108;-58
2023/07/03 12:09:34;;;;;;;7.10;1.35;;;17.60;99.90;;;;;;5079760;28;20120;-58
2023/07/03 12:12:00;;;;;;;7.60;1.35;;;17.60;99.90;;;;;;5079849;28;20052;-59
2023/07/03 12:14:46;;;;;;;6.07;1.42;;;17.50;99.90;;;;;;5079133;28;20419;-58
2023/07/03 12:17:20;;;;;;;5.90;1.80;;;17.50;99.90;;;;;;5080121;28;20059;-59
2023/07/03 12:19:47;;;;;;;6.70;1.23;;;17.40;99.90;;;;;;5078791;28;20048;-59
2023/07/03 12:22:15;;;;;;;8.45;1.20;;;17.40;99.90;;;;;;5079825;28;20084;-59
2023/07/03 12:24:42;;;;;;;5.55;1.45;;;17.30;99.90;;;;;;5079429;28;20094;-59
2023/07/03 12:27:08;;;;;;;7.85;1.52;;;17.20;99.90;;;;;;5078012;28;20067;-59
2023/07/03 12:29:47;;;;;;;5.88;1.20;;;17.10;99.90;;;;;;5079887;28;20037;-59
2023/07/03 12:32:32;;;;;;;8.02;1.50;;;17.00;99.90;;;;;;5077218;28;20075;-59
2023/07/03 12:35:14;;;;;;;6.40;1.20;;;17.10;99.90;;;;;;5072477;28;20036;-59
2023/07/03 12:37:53;;;;;;;7.88;1.35;;;17.20;99.90;;;;;;5059025;28;20108;-59
2023/07/03 12:40:20;;;;;;;5.00;1.20;;;17.30;99.90;;;;;;5058674;28;20275;-59
2023/07/03 12:42:52;;;;;;;9.05;1.42;;;17.30;99.50;;;;;;5067070;28;20127;-59
2023/07/03 12:45:20;;;;;;;5.50;1.10;;;17.30;99.30;;;;;;5068024;28;20117;-59
2023/07/03 12:47:59;;;;;;;6.57;1.10;;;17.40;99.90;;;;;;5059205;28;20043;-59
2023/07/03 12:50:25;;;;;;;9.32;1.50;;;17.70;99.80;;;;;;5059124;28;20110;-59
2023/07/03 12:52:56;;;;;;;8.35;1.38;;;17.90;99.20;;;;;;5063036;28;20036;-59
2023/07/03 12:55:22;;;;;;;5.00;1.10;;;17.80;99.20;;;;;;5078423;28;20047;-59